UAL615 KORD-KDFW
Flight info
| Callsign | UAL615 |
|---|---|
| Flight time | 1h 59m |
| Altitude | 38000 |
| Route | ACITO ADELL ARLYN STL RZC FSM RRNET SEEVR4 |
| Aircraft | B742/H-SDFHIRWXY/L |
Departure
| Time | 2026-05-04 17:14 |
|---|---|
| Airport | Chicago O'Hare International Airport (KORD) |
Arrival
| Time | 2026-05-04 19:13 |
|---|---|
| Airport | Dallas Fort Worth International Airport (KDFW) |
| Time | Latitude | Longitude | Altitude | Speed | Heading |
|---|---|---|---|---|---|
| 2026-05-04 16:47 | 41.97922 | -87.90945 | 667 ft | 0 kts | 281° |
| 2026-05-04 16:55 | 41.97913 | -87.90912 | 667 ft | 2 kts | 302° |
| 2026-05-04 16:55 | 41.97893 | -87.90883 | 667 ft | 2 kts | 326° |
| 2026-05-04 16:56 | 41.97865 | -87.90867 | 667 ft | 2 kts | 350° |
| 2026-05-04 16:56 | 41.97838 | -87.90868 | 667 ft | 0 kts | 10° |
| 2026-05-04 17:04 | 41.97873 | -87.90860 | 667 ft | 9 kts | 8° |
| 2026-05-04 17:04 | 41.98021 | -87.90831 | 667 ft | 10 kts | 7° |
| 2026-05-04 17:05 | 41.98189 | -87.90830 | 666 ft | 13 kts | 355° |
| 2026-05-04 17:05 | 41.98286 | -87.90666 | 663 ft | 13 kts | 85° |
| 2026-05-04 17:06 | 41.98289 | -87.90350 | 661 ft | 23 kts | 90° |
| 2026-05-04 17:06 | 41.98288 | -87.90128 | 660 ft | 23 kts | 90° |
| 2026-05-04 17:07 | 41.98285 | -87.89701 | 658 ft | 22 kts | 95° |
| 2026-05-04 17:07 | 41.98281 | -87.89559 | 657 ft | 22 kts | 91° |
| 2026-05-04 17:07 | 41.98280 | -87.89305 | 656 ft | 17 kts | 90° |
| 2026-05-04 17:07 | 41.98279 | -87.89145 | 654 ft | 12 kts | 91° |
| 2026-05-04 17:08 | 41.98254 | -87.89049 | 654 ft | 9 kts | 141° |
| 2026-05-04 17:08 | 41.98119 | -87.89070 | 654 ft | 16 kts | 226° |
| 2026-05-04 17:08 | 41.98024 | -87.89228 | 655 ft | 25 kts | 231° |
| 2026-05-04 17:09 | 41.97910 | -87.89406 | 657 ft | 21 kts | 219° |
| 2026-05-04 17:09 | 41.97770 | -87.89435 | 656 ft | 21 kts | 177° |
| 2026-05-04 17:09 | 41.97628 | -87.89431 | 656 ft | 20 kts | 180° |
| 2026-05-04 17:10 | 41.97368 | -87.89428 | 657 ft | 16 kts | 180° |
| 2026-05-04 17:10 | 41.97195 | -87.89229 | 657 ft | 17 kts | 88° |
| 2026-05-04 17:11 | 41.97197 | -87.89026 | 656 ft | 23 kts | 89° |
| 2026-05-04 17:11 | 41.97195 | -87.88810 | 656 ft | 22 kts | 89° |
| 2026-05-04 17:11 | 41.97178 | -87.88443 | 657 ft | 16 kts | 107° |
| 2026-05-04 17:12 | 41.97170 | -87.88297 | 656 ft | 15 kts | 88° |
| 2026-05-04 17:12 | 41.97129 | -87.88038 | 654 ft | 13 kts | 167° |
| 2026-05-04 17:13 | 41.96927 | -87.88058 | 654 ft | 0 kts | 218° |
| 2026-05-04 17:14 | 41.96847 | -87.88151 | 656 ft | 42 kts | 221° |
| 2026-05-04 17:14 | 41.96442 | -87.88632 | 657 ft | 111 kts | 221° |
| 2026-05-04 17:14 | 41.94977 | -87.90471 | 1518 ft | 151 kts | 226° |
| 2026-05-04 17:15 | 41.94257 | -87.91496 | 2185 ft | 156 kts | 228° |
| 2026-05-04 17:15 | 41.92376 | -87.93057 | 3385 ft | 175 kts | 198° |
| 2026-05-04 17:16 | 41.89727 | -87.92970 | 4429 ft | 204 kts | 186° |
| 2026-05-04 17:16 | 41.86459 | -87.96177 | 6076 ft | 201 kts | 209° |
| 2026-05-04 17:17 | 41.85142 | -87.96829 | 6535 ft | 203 kts | 204° |
| 2026-05-04 17:17 | 41.81166 | -87.98948 | 7861 ft | 214 kts | 205° |
| 2026-05-04 17:18 | 41.79767 | -87.99640 | 8363 ft | 215 kts | 205° |
| 2026-05-04 17:18 | 41.76926 | -88.01022 | 9385 ft | 217 kts | 206° |
| 2026-05-04 17:19 | 41.74087 | -88.02392 | 10376 ft | 217 kts | 206° |
| 2026-05-04 17:19 | 41.71246 | -88.03760 | 11291 ft | 218 kts | 207° |
| 2026-05-04 17:20 | 41.68402 | -88.05129 | 12147 ft | 218 kts | 207° |
| 2026-05-04 17:20 | 41.65542 | -88.06503 | 12966 ft | 218 kts | 207° |
| 2026-05-04 17:20 | 41.64117 | -88.07188 | 13360 ft | 218 kts | 207° |
| 2026-05-04 17:21 | 41.61247 | -88.08564 | 14110 ft | 218 kts | 207° |
| 2026-05-04 17:21 | 41.58403 | -88.09927 | 14817 ft | 218 kts | 208° |
| 2026-05-04 17:22 | 41.56952 | -88.10622 | 15152 ft | 218 kts | 208° |
| 2026-05-04 17:22 | 41.55537 | -88.11300 | 15467 ft | 219 kts | 208° |
| 2026-05-04 17:23 | 41.51219 | -88.13367 | 16364 ft | 221 kts | 208° |
| 2026-05-04 17:23 | 41.49756 | -88.14066 | 16662 ft | 221 kts | 208° |
| 2026-05-04 17:23 | 41.46854 | -88.15451 | 17226 ft | 222 kts | 208° |
| 2026-05-04 17:24 | 41.45398 | -88.16146 | 17502 ft | 223 kts | 208° |
| 2026-05-04 17:24 | 41.41010 | -88.18234 | 18317 ft | 225 kts | 208° |
| 2026-05-04 17:25 | 41.39513 | -88.18928 | 18585 ft | 225 kts | 207° |
| 2026-05-04 17:25 | 41.36537 | -88.20283 | 19084 ft | 227 kts | 207° |
| 2026-05-04 17:26 | 41.33517 | -88.21650 | 19567 ft | 229 kts | 207° |
| 2026-05-04 17:26 | 41.28751 | -88.23813 | 19880 ft | 271 kts | 206° |
| 2026-05-04 17:27 | 41.24871 | -88.25566 | 19911 ft | 318 kts | 205° |
| 2026-05-04 17:27 | 41.20473 | -88.27557 | 20214 ft | 342 kts | 204° |
| 2026-05-04 17:28 | 41.15936 | -88.29607 | 20972 ft | 345 kts | 204° |
| 2026-05-04 17:29 | 41.09065 | -88.32722 | 22120 ft | 344 kts | 204° |
| 2026-05-04 17:29 | 41.02259 | -88.35805 | 23333 ft | 348 kts | 204° |
| 2026-05-04 17:30 | 40.95386 | -88.38908 | 24961 ft | 345 kts | 204° |
| 2026-05-04 17:31 | 40.90876 | -88.40942 | 26009 ft | 340 kts | 204° |
| 2026-05-04 17:31 | 40.84200 | -88.43949 | 27294 ft | 336 kts | 204° |
| 2026-05-04 17:32 | 40.79796 | -88.45930 | 28012 ft | 334 kts | 204° |
| 2026-05-04 17:33 | 40.73204 | -88.48887 | 29033 ft | 332 kts | 204° |
| 2026-05-04 17:33 | 40.71082 | -88.49837 | 29361 ft | 330 kts | 204° |
| 2026-05-04 17:34 | 40.64638 | -88.52721 | 30384 ft | 322 kts | 204° |
| 2026-05-04 17:34 | 40.62533 | -88.53661 | 30682 ft | 319 kts | 205° |
| 2026-05-04 17:35 | 40.56243 | -88.56471 | 31386 ft | 315 kts | 205° |
| 2026-05-04 17:35 | 40.52125 | -88.58305 | 31790 ft | 312 kts | 205° |
| 2026-05-04 17:35 | 40.50060 | -88.59227 | 31997 ft | 313 kts | 205° |
| 2026-05-04 17:36 | 40.48013 | -88.60138 | 32199 ft | 314 kts | 205° |
| 2026-05-04 17:36 | 40.45937 | -88.61062 | 32404 ft | 315 kts | 205° |
| 2026-05-04 17:36 | 40.43834 | -88.61996 | 32610 ft | 316 kts | 205° |
| 2026-05-04 17:36 | 40.41743 | -88.62924 | 32817 ft | 317 kts | 205° |
| 2026-05-04 17:37 | 40.39661 | -88.63848 | 33020 ft | 318 kts | 205° |
| 2026-05-04 17:37 | 40.37585 | -88.64769 | 33221 ft | 318 kts | 205° |
| 2026-05-04 17:37 | 40.35466 | -88.65707 | 33421 ft | 319 kts | 204° |
| 2026-05-04 17:37 | 40.33401 | -88.66710 | 33591 ft | 317 kts | 212° |
| 2026-05-04 17:38 | 40.31519 | -88.68182 | 33776 ft | 311 kts | 223° |
| 2026-05-04 17:38 | 40.29858 | -88.69978 | 33959 ft | 310 kts | 227° |
| 2026-05-04 17:38 | 40.28295 | -88.71893 | 34133 ft | 310 kts | 229° |
| 2026-05-04 17:38 | 40.26836 | -88.73751 | 34304 ft | 311 kts | 229° |
| 2026-05-04 17:39 | 40.23729 | -88.77748 | 34657 ft | 314 kts | 229° |
| 2026-05-04 17:39 | 40.22163 | -88.79761 | 34823 ft | 314 kts | 229° |
| 2026-05-04 17:39 | 40.20617 | -88.81749 | 34987 ft | 313 kts | 229° |
| 2026-05-04 17:40 | 40.19070 | -88.83734 | 35159 ft | 313 kts | 229° |
| 2026-05-04 17:40 | 40.17507 | -88.85738 | 35320 ft | 312 kts | 229° |
| 2026-05-04 17:40 | 40.15969 | -88.87711 | 35481 ft | 310 kts | 229° |
| 2026-05-04 17:40 | 40.14423 | -88.89691 | 35649 ft | 308 kts | 229° |
| 2026-05-04 17:41 | 40.12910 | -88.91627 | 35808 ft | 306 kts | 230° |
| 2026-05-04 17:41 | 40.11389 | -88.93573 | 35967 ft | 303 kts | 230° |
| 2026-05-04 17:41 | 40.09889 | -88.95490 | 36132 ft | 300 kts | 230° |
| 2026-05-04 17:41 | 40.08506 | -88.97257 | 36283 ft | 297 kts | 230° |
| 2026-05-04 17:42 | 40.07039 | -88.99133 | 36403 ft | 297 kts | 230° |
| 2026-05-04 17:42 | 40.05533 | -89.01060 | 36351 ft | 303 kts | 230° |
| 2026-05-04 17:42 | 40.02477 | -89.04958 | 36317 ft | 311 kts | 230° |
| 2026-05-04 17:43 | 39.99325 | -89.08970 | 36388 ft | 320 kts | 229° |
| 2026-05-04 17:43 | 39.96088 | -89.13082 | 36539 ft | 329 kts | 229° |
| 2026-05-04 17:44 | 39.94463 | -89.15144 | 36788 ft | 328 kts | 230° |
| 2026-05-04 17:44 | 39.92819 | -89.17228 | 37063 ft | 327 kts | 230° |
| 2026-05-04 17:44 | 39.91198 | -89.19282 | 37344 ft | 326 kts | 230° |
| 2026-05-04 17:44 | 39.89571 | -89.21343 | 37643 ft | 323 kts | 230° |
| 2026-05-04 17:45 | 39.86380 | -89.25388 | 37754 ft | 330 kts | 230° |
| 2026-05-04 17:45 | 39.83040 | -89.29614 | 37759 ft | 342 kts | 230° |
| 2026-05-04 17:46 | 39.79564 | -89.34000 | 37755 ft | 355 kts | 230° |
| 2026-05-04 17:46 | 39.75945 | -89.38559 | 37756 ft | 368 kts | 230° |
| 2026-05-04 17:47 | 39.72234 | -89.43223 | 37760 ft | 375 kts | 230° |
| 2026-05-04 17:47 | 39.68444 | -89.47981 | 37749 ft | 384 kts | 230° |
| 2026-05-04 17:48 | 39.64566 | -89.52843 | 37747 ft | 393 kts | 230° |
| 2026-05-04 17:48 | 39.60563 | -89.57851 | 37751 ft | 402 kts | 230° |
| 2026-05-04 17:49 | 39.56500 | -89.62927 | 37746 ft | 412 kts | 229° |
| 2026-05-04 17:49 | 39.52374 | -89.68071 | 37748 ft | 421 kts | 229° |
| 2026-05-04 17:50 | 39.48088 | -89.73405 | 37743 ft | 432 kts | 229° |
| 2026-05-04 17:50 | 39.43703 | -89.78851 | 37742 ft | 442 kts | 229° |
| 2026-05-04 17:51 | 39.39212 | -89.84421 | 37750 ft | 452 kts | 229° |
| 2026-05-04 17:51 | 39.34649 | -89.90067 | 37748 ft | 456 kts | 229° |
| 2026-05-04 17:52 | 39.30110 | -89.95666 | 37745 ft | 447 kts | 229° |
| 2026-05-04 17:52 | 39.25615 | -90.01209 | 37752 ft | 449 kts | 229° |
| 2026-05-04 17:53 | 39.21072 | -90.06807 | 37752 ft | 453 kts | 229° |
| 2026-05-04 17:53 | 39.16534 | -90.12378 | 37747 ft | 447 kts | 229° |
| 2026-05-04 17:54 | 39.12009 | -90.17930 | 37760 ft | 450 kts | 229° |
| 2026-05-04 17:54 | 39.07483 | -90.23470 | 37765 ft | 449 kts | 229° |
| 2026-05-04 17:55 | 39.02951 | -90.29007 | 37775 ft | 449 kts | 229° |
| 2026-05-04 17:55 | 38.98415 | -90.34541 | 37779 ft | 450 kts | 229° |
| 2026-05-04 17:56 | 38.93892 | -90.40047 | 37777 ft | 449 kts | 229° |
| 2026-05-04 17:56 | 38.89412 | -90.45493 | 37771 ft | 448 kts | 230° |
| 2026-05-04 17:57 | 38.85074 | -90.51259 | 37774 ft | 447 kts | 233° |
| 2026-05-04 17:57 | 38.80950 | -90.57186 | 37770 ft | 444 kts | 234° |
| 2026-05-04 17:58 | 38.76894 | -90.63134 | 37769 ft | 444 kts | 234° |
| 2026-05-04 17:58 | 38.72836 | -90.69099 | 37766 ft | 446 kts | 234° |
| 2026-05-04 17:59 | 38.68778 | -90.75051 | 37761 ft | 444 kts | 234° |
| 2026-05-04 18:00 | 38.62721 | -90.83914 | 37759 ft | 442 kts | 234° |
| 2026-05-04 18:00 | 38.58654 | -90.89858 | 37783 ft | 446 kts | 234° |
| 2026-05-04 18:01 | 38.54578 | -90.95797 | 37759 ft | 442 kts | 234° |
| 2026-05-04 18:01 | 38.50520 | -91.01699 | 37766 ft | 443 kts | 234° |
| 2026-05-04 18:02 | 38.44421 | -91.10551 | 37768 ft | 443 kts | 234° |
| 2026-05-04 18:02 | 38.40351 | -91.16444 | 37775 ft | 441 kts | 234° |
| 2026-05-04 18:03 | 38.36292 | -91.22312 | 37782 ft | 443 kts | 235° |
| 2026-05-04 18:03 | 38.32238 | -91.28159 | 37800 ft | 441 kts | 235° |
| 2026-05-04 18:04 | 38.28174 | -91.34011 | 37797 ft | 443 kts | 235° |
| 2026-05-04 18:05 | 38.22040 | -91.42825 | 37797 ft | 443 kts | 235° |
| 2026-05-04 18:05 | 38.17946 | -91.48692 | 37794 ft | 443 kts | 235° |
| 2026-05-04 18:06 | 38.11799 | -91.57484 | 37773 ft | 443 kts | 236° |
| 2026-05-04 18:06 | 38.07707 | -91.63319 | 37798 ft | 443 kts | 236° |
| 2026-05-04 18:07 | 38.03604 | -91.69167 | 37777 ft | 446 kts | 236° |
| 2026-05-04 18:07 | 37.99464 | -91.75055 | 37787 ft | 447 kts | 236° |
| 2026-05-04 18:08 | 37.95361 | -91.80872 | 37787 ft | 444 kts | 236° |
| 2026-05-04 18:08 | 37.91253 | -91.86695 | 37792 ft | 446 kts | 236° |
| 2026-05-04 18:09 | 37.82959 | -91.98410 | 37775 ft | 447 kts | 236° |
| 2026-05-04 18:10 | 37.78817 | -92.04244 | 37791 ft | 445 kts | 236° |
| 2026-05-04 18:10 | 37.74773 | -92.09929 | 37796 ft | 444 kts | 236° |
| 2026-05-04 18:11 | 37.70645 | -92.15724 | 37796 ft | 444 kts | 237° |
| 2026-05-04 18:11 | 37.66511 | -92.21517 | 37800 ft | 443 kts | 236° |
| 2026-05-04 18:12 | 37.62404 | -92.27263 | 37805 ft | 443 kts | 237° |
| 2026-05-04 18:12 | 37.58275 | -92.33029 | 37801 ft | 443 kts | 237° |
| 2026-05-04 18:13 | 37.54133 | -92.38800 | 37799 ft | 441 kts | 237° |
| 2026-05-04 18:14 | 37.48082 | -92.47216 | 37811 ft | 441 kts | 237° |
| 2026-05-04 18:14 | 37.43985 | -92.52898 | 37813 ft | 437 kts | 237° |
| 2026-05-04 18:15 | 37.35764 | -92.64281 | 37814 ft | 440 kts | 237° |
| 2026-05-04 18:16 | 37.31670 | -92.69928 | 37828 ft | 436 kts | 237° |
| 2026-05-04 18:16 | 37.27598 | -92.75539 | 37808 ft | 437 kts | 237° |
| 2026-05-04 18:17 | 37.21433 | -92.84023 | 37794 ft | 439 kts | 237° |
| 2026-05-04 18:18 | 37.15303 | -92.92423 | 37794 ft | 437 kts | 238° |
| 2026-05-04 18:18 | 37.11200 | -92.98045 | 37796 ft | 438 kts | 237° |
| 2026-05-04 18:19 | 37.05065 | -93.06413 | 37809 ft | 432 kts | 238° |
| 2026-05-04 18:19 | 37.01001 | -93.11956 | 37794 ft | 435 kts | 238° |
| 2026-05-04 18:20 | 36.96907 | -93.17529 | 37803 ft | 436 kts | 238° |
| 2026-05-04 18:20 | 36.94837 | -93.20340 | 37962 ft | 437 kts | 238° |
| 2026-05-04 18:20 | 36.92789 | -93.23120 | 37763 ft | 434 kts | 238° |
| 2026-05-04 18:21 | 36.90744 | -93.25888 | 37918 ft | 434 kts | 238° |
| 2026-05-04 18:21 | 36.88708 | -93.28648 | 37840 ft | 433 kts | 238° |
| 2026-05-04 18:21 | 36.84629 | -93.34169 | 37819 ft | 432 kts | 238° |
| 2026-05-04 18:22 | 36.80590 | -93.39619 | 37834 ft | 427 kts | 238° |
| 2026-05-04 18:22 | 36.76556 | -93.45070 | 37831 ft | 432 kts | 239° |
| 2026-05-04 18:23 | 36.72481 | -93.50561 | 37834 ft | 431 kts | 239° |
| 2026-05-04 18:23 | 36.68427 | -93.56006 | 37840 ft | 429 kts | 239° |
| 2026-05-04 18:24 | 36.64375 | -93.61443 | 37839 ft | 429 kts | 239° |
| 2026-05-04 18:24 | 36.60329 | -93.66866 | 37833 ft | 428 kts | 239° |
| 2026-05-04 18:25 | 36.56278 | -93.72287 | 37832 ft | 430 kts | 239° |
| 2026-05-04 18:25 | 36.52220 | -93.77705 | 37827 ft | 426 kts | 239° |
| 2026-05-04 18:26 | 36.48177 | -93.83094 | 37839 ft | 428 kts | 239° |
| 2026-05-04 18:26 | 36.44096 | -93.88533 | 37834 ft | 429 kts | 239° |
| 2026-05-04 18:27 | 36.40041 | -93.93913 | 37844 ft | 425 kts | 239° |
| 2026-05-04 18:27 | 36.36006 | -93.99273 | 37871 ft | 429 kts | 239° |
| 2026-05-04 18:28 | 36.31956 | -94.04630 | 37868 ft | 422 kts | 240° |
| 2026-05-04 18:28 | 36.27922 | -94.09933 | 37876 ft | 430 kts | 238° |
| 2026-05-04 18:29 | 36.25557 | -94.12303 | 37873 ft | 455 kts | 225° |
| 2026-05-04 18:29 | 36.22649 | -94.14088 | 37872 ft | 476 kts | 213° |
| 2026-05-04 18:29 | 36.19403 | -94.15153 | 37871 ft | 493 kts | 203° |
| 2026-05-04 18:29 | 36.15954 | -94.15820 | 37872 ft | 502 kts | 200° |
| 2026-05-04 18:30 | 36.05568 | -94.17385 | 37878 ft | 501 kts | 200° |
| 2026-05-04 18:31 | 35.98677 | -94.18541 | 37878 ft | 500 kts | 201° |
| 2026-05-04 18:31 | 35.91867 | -94.19734 | 37887 ft | 499 kts | 201° |
| 2026-05-04 18:32 | 35.85014 | -94.20949 | 37877 ft | 497 kts | 201° |
| 2026-05-04 18:32 | 35.78164 | -94.22160 | 37879 ft | 498 kts | 202° |
| 2026-05-04 18:33 | 35.71241 | -94.23384 | 37875 ft | 502 kts | 202° |
| 2026-05-04 18:33 | 35.64348 | -94.24595 | 37872 ft | 501 kts | 202° |
| 2026-05-04 18:34 | 35.57613 | -94.25771 | 37870 ft | 499 kts | 202° |
| 2026-05-04 18:34 | 35.50699 | -94.26990 | 37869 ft | 503 kts | 202° |
| 2026-05-04 18:35 | 35.43824 | -94.28249 | 37864 ft | 492 kts | 206° |
| 2026-05-04 18:35 | 35.40616 | -94.29450 | 37872 ft | 463 kts | 219° |
| 2026-05-04 18:35 | 35.37855 | -94.31277 | 37882 ft | 444 kts | 229° |
| 2026-05-04 18:36 | 35.33154 | -94.35674 | 37877 ft | 433 kts | 236° |
| 2026-05-04 18:36 | 35.28616 | -94.40510 | 37880 ft | 433 kts | 237° |
| 2026-05-04 18:37 | 35.24240 | -94.45255 | 37874 ft | 425 kts | 238° |
| 2026-05-04 18:37 | 35.19849 | -94.50023 | 37882 ft | 424 kts | 237° |
| 2026-05-04 18:38 | 35.15427 | -94.54825 | 37886 ft | 427 kts | 237° |
| 2026-05-04 18:38 | 35.10991 | -94.59626 | 37884 ft | 425 kts | 237° |
| 2026-05-04 18:39 | 35.06577 | -94.64384 | 37882 ft | 423 kts | 238° |
| 2026-05-04 18:39 | 35.02140 | -94.69190 | 37887 ft | 433 kts | 237° |
| 2026-05-04 18:40 | 34.97629 | -94.74043 | 37882 ft | 429 kts | 236° |
| 2026-05-04 18:40 | 34.93335 | -94.78635 | 37892 ft | 419 kts | 237° |
| 2026-05-04 18:41 | 34.88921 | -94.83395 | 37884 ft | 426 kts | 237° |
| 2026-05-04 18:41 | 34.84449 | -94.88185 | 37903 ft | 432 kts | 236° |
| 2026-05-04 18:42 | 34.79905 | -94.92901 | 37897 ft | 424 kts | 236° |
| 2026-05-04 18:42 | 34.75400 | -94.97536 | 37896 ft | 428 kts | 236° |
| 2026-05-04 18:43 | 34.70861 | -95.02183 | 37881 ft | 428 kts | 236° |
| 2026-05-04 18:43 | 34.66348 | -95.06788 | 37892 ft | 428 kts | 235° |
| 2026-05-04 18:44 | 34.61769 | -95.11459 | 37882 ft | 430 kts | 236° |
| 2026-05-04 18:44 | 34.57183 | -95.16127 | 37882 ft | 430 kts | 236° |
| 2026-05-04 18:45 | 34.52634 | -95.20741 | 37888 ft | 425 kts | 235° |
| 2026-05-04 18:45 | 34.48092 | -95.25356 | 37888 ft | 429 kts | 235° |
| 2026-05-04 18:46 | 34.43525 | -95.29985 | 37886 ft | 427 kts | 235° |
| 2026-05-04 18:46 | 34.38978 | -95.34582 | 37889 ft | 428 kts | 235° |
| 2026-05-04 18:47 | 34.34400 | -95.39212 | 37886 ft | 430 kts | 235° |
| 2026-05-04 18:47 | 34.29775 | -95.43883 | 37880 ft | 433 kts | 235° |
| 2026-05-04 18:48 | 34.25239 | -95.48415 | 37786 ft | 408 kts | 236° |
| 2026-05-04 18:48 | 34.23089 | -95.50554 | 37601 ft | 393 kts | 236° |
| 2026-05-04 18:48 | 34.21018 | -95.52624 | 37332 ft | 381 kts | 237° |
| 2026-05-04 18:48 | 34.19017 | -95.54633 | 37022 ft | 370 kts | 237° |
| 2026-05-04 18:49 | 34.17065 | -95.56595 | 36662 ft | 361 kts | 238° |
| 2026-05-04 18:49 | 34.15145 | -95.58530 | 36214 ft | 354 kts | 237° |
| 2026-05-04 18:49 | 34.13260 | -95.60427 | 35644 ft | 351 kts | 238° |
| 2026-05-04 18:49 | 34.11407 | -95.62292 | 35044 ft | 348 kts | 237° |
| 2026-05-04 18:50 | 34.09546 | -95.64161 | 34388 ft | 347 kts | 237° |
| 2026-05-04 18:50 | 34.07709 | -95.66007 | 33719 ft | 354 kts | 237° |
| 2026-05-04 18:50 | 34.05749 | -95.68005 | 33037 ft | 382 kts | 235° |
| 2026-05-04 18:50 | 34.03644 | -95.70144 | 32400 ft | 410 kts | 233° |
| 2026-05-04 18:51 | 34.01394 | -95.72406 | 31766 ft | 435 kts | 232° |
| 2026-05-04 18:51 | 33.99056 | -95.74733 | 31120 ft | 446 kts | 231° |
| 2026-05-04 18:51 | 33.96657 | -95.77100 | 30459 ft | 444 kts | 231° |
| 2026-05-04 18:51 | 33.94294 | -95.79431 | 29816 ft | 441 kts | 230° |
| 2026-05-04 18:52 | 33.91926 | -95.81780 | 29164 ft | 438 kts | 230° |
| 2026-05-04 18:52 | 33.89596 | -95.84098 | 28511 ft | 435 kts | 230° |
| 2026-05-04 18:52 | 33.87291 | -95.86400 | 27850 ft | 432 kts | 230° |
| 2026-05-04 18:52 | 33.84998 | -95.88686 | 27182 ft | 430 kts | 229° |
| 2026-05-04 18:53 | 33.82679 | -95.90994 | 26512 ft | 428 kts | 229° |
| 2026-05-04 18:53 | 33.80407 | -95.93248 | 25855 ft | 426 kts | 229° |
| 2026-05-04 18:53 | 33.78119 | -95.95518 | 25185 ft | 425 kts | 228° |
| 2026-05-04 18:53 | 33.75854 | -95.97760 | 24522 ft | 423 kts | 227° |
| 2026-05-04 18:54 | 33.73585 | -96.00005 | 23845 ft | 421 kts | 227° |
| 2026-05-04 18:54 | 33.71328 | -96.02238 | 23172 ft | 420 kts | 227° |
| 2026-05-04 18:54 | 33.69067 | -96.04470 | 22478 ft | 418 kts | 227° |
| 2026-05-04 18:54 | 33.66840 | -96.06668 | 21795 ft | 416 kts | 226° |
| 2026-05-04 18:55 | 33.64592 | -96.08884 | 21108 ft | 414 kts | 226° |
| 2026-05-04 18:55 | 33.60159 | -96.13251 | 19750 ft | 410 kts | 226° |
| 2026-05-04 18:55 | 33.57987 | -96.15390 | 19081 ft | 408 kts | 225° |
| 2026-05-04 18:56 | 33.55806 | -96.17535 | 18454 ft | 403 kts | 225° |
| 2026-05-04 18:56 | 33.53687 | -96.19610 | 17898 ft | 382 kts | 225° |
| 2026-05-04 18:56 | 33.51675 | -96.21580 | 17226 ft | 371 kts | 225° |
| 2026-05-04 18:56 | 33.49681 | -96.23544 | 16605 ft | 370 kts | 225° |
| 2026-05-04 18:57 | 33.47668 | -96.25535 | 16336 ft | 374 kts | 225° |
| 2026-05-04 18:57 | 33.45797 | -96.27534 | 16110 ft | 347 kts | 229° |
| 2026-05-04 18:57 | 33.44123 | -96.29545 | 15806 ft | 336 kts | 232° |
| 2026-05-04 18:57 | 33.42556 | -96.31589 | 15435 ft | 329 kts | 233° |
| 2026-05-04 18:58 | 33.41057 | -96.33624 | 15061 ft | 323 kts | 234° |
| 2026-05-04 18:58 | 33.39585 | -96.35651 | 14691 ft | 318 kts | 234° |
| 2026-05-04 18:58 | 33.38149 | -96.37636 | 14330 ft | 313 kts | 234° |
| 2026-05-04 18:58 | 33.36743 | -96.39578 | 13939 ft | 304 kts | 234° |
| 2026-05-04 18:59 | 33.35388 | -96.41445 | 13580 ft | 294 kts | 234° |
| 2026-05-04 18:59 | 33.34104 | -96.43356 | 13198 ft | 292 kts | 241° |
| 2026-05-04 18:59 | 33.33120 | -96.45414 | 12813 ft | 287 kts | 249° |
| 2026-05-04 18:59 | 33.32338 | -96.47607 | 12349 ft | 287 kts | 253° |
| 2026-05-04 19:00 | 33.31652 | -96.49846 | 11861 ft | 288 kts | 254° |
| 2026-05-04 19:00 | 33.30995 | -96.52129 | 11369 ft | 289 kts | 254° |
| 2026-05-04 19:00 | 33.30353 | -96.54403 | 10885 ft | 290 kts | 254° |
| 2026-05-04 19:00 | 33.29740 | -96.56703 | 10388 ft | 289 kts | 257° |
| 2026-05-04 19:01 | 33.29340 | -96.58972 | 9894 ft | 277 kts | 263° |
| 2026-05-04 19:01 | 33.29110 | -96.61234 | 9473 ft | 271 kts | 265° |
| 2026-05-04 19:01 | 33.28959 | -96.63456 | 9069 ft | 270 kts | 266° |
| 2026-05-04 19:01 | 33.28838 | -96.65699 | 8655 ft | 270 kts | 266° |
| 2026-05-04 19:02 | 33.28728 | -96.67943 | 8233 ft | 266 kts | 266° |
| 2026-05-04 19:02 | 33.28629 | -96.70087 | 7885 ft | 253 kts | 266° |
| 2026-05-04 19:02 | 33.28533 | -96.72141 | 7556 ft | 247 kts | 266° |
| 2026-05-04 19:02 | 33.28442 | -96.74113 | 7222 ft | 247 kts | 265° |
| 2026-05-04 19:03 | 33.28348 | -96.76160 | 6873 ft | 247 kts | 265° |
| 2026-05-04 19:03 | 33.28254 | -96.78187 | 6562 ft | 245 kts | 265° |
| 2026-05-04 19:03 | 33.28160 | -96.80210 | 6256 ft | 242 kts | 265° |
| 2026-05-04 19:03 | 33.28067 | -96.82204 | 6021 ft | 237 kts | 264° |
| 2026-05-04 19:04 | 33.27969 | -96.84144 | 6047 ft | 234 kts | 262° |
| 2026-05-04 19:04 | 33.27686 | -96.86073 | 6058 ft | 235 kts | 254° |
| 2026-05-04 19:04 | 33.27214 | -96.87928 | 6058 ft | 234 kts | 250° |
| 2026-05-04 19:04 | 33.26654 | -96.89737 | 6060 ft | 232 kts | 249° |
| 2026-05-04 19:05 | 33.26046 | -96.91560 | 6058 ft | 234 kts | 248° |
| 2026-05-04 19:05 | 33.25428 | -96.93348 | 6057 ft | 232 kts | 247° |
| 2026-05-04 19:05 | 33.24812 | -96.95111 | 6061 ft | 234 kts | 247° |
| 2026-05-04 19:05 | 33.24178 | -96.96912 | 6058 ft | 231 kts | 247° |
| 2026-05-04 19:06 | 33.23555 | -96.98677 | 5792 ft | 234 kts | 247° |
| 2026-05-04 19:06 | 33.22911 | -97.00497 | 5400 ft | 238 kts | 246° |
| 2026-05-04 19:06 | 33.21940 | -97.02021 | 5021 ft | 237 kts | 215° |
| 2026-05-04 19:06 | 33.20368 | -97.02650 | 4660 ft | 240 kts | 191° |
| 2026-05-04 19:07 | 33.18742 | -97.03008 | 4375 ft | 235 kts | 197° |
| 2026-05-04 19:07 | 33.17189 | -97.03556 | 4222 ft | 225 kts | 199° |
| 2026-05-04 19:07 | 33.15726 | -97.04109 | 4129 ft | 214 kts | 198° |
| 2026-05-04 19:07 | 33.14304 | -97.04524 | 3896 ft | 207 kts | 194° |
| 2026-05-04 19:08 | 33.12913 | -97.04886 | 3725 ft | 201 kts | 194° |
| 2026-05-04 19:08 | 33.11539 | -97.05199 | 3704 ft | 204 kts | 191° |
| 2026-05-04 19:08 | 33.10125 | -97.05324 | 3721 ft | 202 kts | 185° |
| 2026-05-04 19:08 | 33.08723 | -97.05369 | 3687 ft | 198 kts | 184° |
| 2026-05-04 19:09 | 33.07348 | -97.05387 | 3505 ft | 195 kts | 184° |
| 2026-05-04 19:09 | 33.05995 | -97.05396 | 3290 ft | 195 kts | 183° |
| 2026-05-04 19:09 | 33.04681 | -97.05405 | 3082 ft | 198 kts | 182° |
| 2026-05-04 19:09 | 33.03312 | -97.05409 | 2797 ft | 188 kts | 183° |
| 2026-05-04 19:10 | 33.02070 | -97.05413 | 2600 ft | 172 kts | 182° |
| 2026-05-04 19:10 | 33.00919 | -97.05421 | 2455 ft | 154 kts | 183° |
| 2026-05-04 19:10 | 32.99898 | -97.05416 | 2210 ft | 145 kts | 183° |
| 2026-05-04 19:10 | 32.98904 | -97.05434 | 1948 ft | 135 kts | 184° |
| 2026-05-04 19:11 | 32.98010 | -97.05452 | 1787 ft | 121 kts | 184° |
| 2026-05-04 19:11 | 32.97200 | -97.05444 | 1620 ft | 117 kts | 183° |
| 2026-05-04 19:11 | 32.96376 | -97.05442 | 1452 ft | 122 kts | 182° |
| 2026-05-04 19:11 | 32.95550 | -97.05441 | 1370 ft | 115 kts | 182° |
| 2026-05-04 19:12 | 32.94723 | -97.05450 | 1174 ft | 124 kts | 182° |
| 2026-05-04 19:12 | 32.93038 | -97.05461 | 901 ft | 119 kts | 181° |
| 2026-05-04 19:12 | 32.92228 | -97.05460 | 753 ft | 117 kts | 181° |
| 2026-05-04 19:13 | 32.91365 | -97.05466 | 622 ft | 123 kts | 181° |
| 2026-05-04 19:13 | 32.90554 | -97.05470 | 618 ft | 106 kts | 179° |
| 2026-05-04 19:13 | 32.89967 | -97.05473 | 615 ft | 61 kts | 180° |
| 2026-05-04 19:13 | 32.89684 | -97.05450 | 608 ft | 23 kts | 162° |
| 2026-05-04 19:14 | 32.89627 | -97.05425 | 606 ft | 0 kts | 156° |
| 2026-05-04 19:14 | 32.89551 | -97.05383 | 604 ft | 26 kts | 152° |
| 2026-05-04 19:14 | 32.89403 | -97.05253 | 600 ft | 24 kts | 102° |
| 2026-05-04 19:14 | 32.89402 | -97.05044 | 599 ft | 27 kts | 91° |
| 2026-05-04 19:15 | 32.89399 | -97.04825 | 598 ft | 14 kts | 89° |
| 2026-05-04 19:15 | 32.89418 | -97.04711 | 596 ft | 10 kts | 61° |
| 2026-05-04 19:15 | 32.89423 | -97.04701 | 596 ft | 0 kts | 58° |
| 2026-05-04 19:15 | 32.89423 | -97.04700 | 596 ft | 0 kts | 58° |
| 2026-05-04 19:16 | 32.89424 | -97.04699 | 596 ft | 2 kts | 56° |
| 2026-05-04 19:16 | 32.89453 | -97.04637 | 595 ft | 11 kts | 68° |
| 2026-05-04 19:16 | 32.89500 | -97.04569 | 595 ft | 6 kts | 44° |
| 2026-05-04 19:17 | 32.89510 | -97.04557 | 595 ft | 0 kts | 44° |
| 2026-05-04 19:17 | 32.89511 | -97.04556 | 595 ft | 0 kts | 44° |